EDT,Max TemperatureF,Mean TemperatureF,Min TemperatureF,Max Dew PointF,MeanDew PointF,Min DewpointF,Max Humidity, Mean Humidity, Min Humidity, Max Sea Level PressureIn, Mean Sea Level PressureIn, Min Sea Level PressureIn, Max VisibilityMiles, Mean VisibilityMiles, Min VisibilityMiles, Max Wind SpeedMPH, Mean Wind SpeedMPH, Max Gust SpeedMPH,PrecipitationIn, CloudCover, Events, WindDirDegrees
2012-10-1,56,50,44,52,48,46,100,93,86,29.94,29.74,29.56,10,5,1,12,6,18,0.41,7,Rain,242
2012-10-2,58,50,41,55,49,41,100,89,77,30.05,29.98,29.92,10,4,0,12,1,14,0.19,5,Fog-Rain,74
2012-10-3,63,58,52,61,56,52,100,97,93,30.13,30.07,30.03,10,4,0,8,2,33,0.15,8,Fog-Rain,59
2012-10-4,64,54,44,61,57,44,100,95,90,30.14,30.09,30.02,9,3,0,9,2,14,0.14,7,Fog-Rain,232
2012-10-5,66,54,42,56,50,43,100,87,73,30.02,29.97,29.87,10,4,0,15,7,22,T,5,Fog,227
2012-10-6,56,48,40,52,46,35,100,83,66,29.94,29.78,29.71,10,6,1,17,7,31,0.74,7,Rain,250
2012-10-7,49,43,37,37,34,27,92,67,42,30.07,30.01,29.92,10,9,4,14,4,20,0.06,6,Rain,240
2012-10-8,51,39,27,37,33,25,100,68,36,30.29,30.17,30.04,10,10,9,13,2,20,0.00,5,Rain,225
2012-10-9,54,39,23,38,32,21,100,75,50,30.29,30.19,30.06,10,10,10,23,2,31,0.00,2,,168
2012-10-10,55,43,30,52,41,28,100,83,66,30.04,29.85,29.69,10,9,2,24,8,33,0.06,7,Rain,210
2012-10-11,46,41,35,36,32,26,89,69,49,30.06,29.96,29.80,10,10,8,20,10,30,0.02,7,Rain,245
2012-10-12,46,33,20,39,30,20,92,72,52,30.41,30.09,29.90,10,8,3,26,6,38,0.22,6,Rain,266
2012-10-13,46,31,16,35,22,15,100,70,40,30.44,30.36,30.17,10,10,5,15,5,20,0.23,3,Rain,232
2012-10-14,58,48,37,54,46,35,100,90,80,30.08,29.91,29.75,10,4,0,17,7,23,0.25,7,Fog-Rain-Snow,230
2012-10-15,63,53,42,54,47,39,86,79,72,29.73,29.61,29.55,10,10,6,26,13,36,0.04,7,Rain,231
2012-10-16,42,34,26,35,32,26,100,85,70,29.91,29.75,29.63,10,9,2,17,6,26,0.03,7,Rain-Snow,256
2012-10-17,59,42,24,41,29,21,100,68,36,29.99,29.93,29.89,10,6,0,8,1,13,0.00,4,Fog,212
2012-10-18,65,47,29,41,36,28,100,67,34,29.98,29.94,29.89,10,10,9,18,7,24,0.00,1,,171
2012-10-19,56,52,48,54,51,42,100,83,66,29.91,29.79,29.67,10,5,0,15,5,23,1.18,8,Fog-Rain,93
2012-10-20,60,47,34,52,47,36,100,81,62,29.71,29.65,29.61,10,6,0,14,5,18,0.15,5,Fog-Rain,227
2012-10-21,48,44,40,43,41,38,100,86,71,29.94,29.83,29.70,10,9,3,16,8,25,0.09,8,Rain,246
2012-10-22,56,46,36,43,40,39,96,76,55,30.08,29.99,29.92,10,10,10,15,6,24,0.00,6,,256
2012-10-23,54,42,29,43,36,28,100,80,59,30.18,30.11,30.05,10,4,0,9,1,12,0.00,4,Fog,67
2012-10-24,56,41,25,36,32,24,100,74,47,30.22,30.18,30.13,10,10,7,10,2,13,0.00,5,,67
2012-10-25,68,53,38,54,45,34,100,82,63,30.22,30.16,30.11,10,7,0,10,2,14,0.00,4,Fog,206
2012-10-26,68,52,35,53,42,35,100,78,55,30.15,30.12,30.07,10,3,0,14,4,17,0.00,1,Fog,230
2012-10-27,65,54,42,52,48,43,100,82,63,30.10,30.03,29.95,10,5,0,15,2,20,0.00,7,Fog,139
2012-10-28,55,48,41,50,47,41,100,92,83,30.03,29.97,29.88,10,4,0,14,5,17,0.00,5,Fog,42
2012-10-29,55,48,41,52,47,41,96,87,77,29.88,29.56,29.27,10,6,2,31,14,47,0.29,7,Rain,52
2012-10-30,62,57,51,54,50,43,100,76,51,29.48,29.38,29.27,10,8,2,25,10,37,0.27,7,Rain,90
2012-10-31,52,45,37,49,42,35,100,88,76,29.48,29.43,29.38,10,9,2,14,5,17,0.12,7,Rain,207